Time;durP1;ratioP1;P1;durP2;ratioP2;P2;SDS_P1;SDS_P2;PMS_P1;PMS_P2;Temp;Humidity;BMP_temperature;BMP_pressure;BME280_temperature;BME280_humidity;BME280_pressure;Samples;Min_cycle;Max_cycle;Signal;HPM_P1;HPM_P2
2023/07/21 00:04:55;;;;;;;2.53;1.83;;;;;;;19.36;55.90;99847.28;30604519;28;97351;-66
2023/07/21 00:19:58;;;;;;;3.38;2.15;;;;;;;19.16;55.94;99848.44;30613996;28;97189;-65
2023/07/21 00:34:59;;;;;;;4.17;2.23;;;;;;;18.85;56.41;99850.41;30613105;28;97255;-66
2023/07/21 00:49:59;;;;;;;3.38;2.10;;;;;;;19.08;56.70;99838.00;30611573;28;113873;-65
2023/07/21 01:05:01;;;;;;;3.40;2.28;;;;;;;18.67;56.64;99827.06;30610660;28;97101;-64
2023/07/21 01:20:04;;;;;;;3.77;1.97;;;;;;;18.19;57.37;99819.88;30608376;28;96671;-66
2023/07/21 01:35:08;;;;;;;3.07;2.00;;;;;;;17.89;58.00;99824.22;30608180;28;97296;-65
2023/07/21 01:50:13;;;;;;;5.20;2.50;;;;;;;17.64;58.71;99812.72;30606455;28;97118;-64
2023/07/21 02:05:22;;;;;;;3.57;2.37;;;;;;;17.49;59.27;99822.00;30605447;28;97281;-66
2023/07/21 02:20:22;;;;;;;3.33;2.37;;;;;;;17.36;59.63;99816.75;30600780;28;97109;-67
2023/07/21 02:35:22;;;;;;;2.63;2.03;;;;;;;17.17;59.47;99829.41;30600566;28;97236;-65
2023/07/21 02:50:24;;;;;;;3.33;1.92;;;;;;;17.08;60.19;99842.31;30599360;28;116540;-65
2023/07/21 03:05:25;;;;;;;3.30;2.33;;;;;;;16.84;60.55;99843.94;30600072;28;97538;-65
2023/07/21 03:20:25;;;;;;;4.88;2.63;;;;;;;16.73;61.25;99850.84;30592126;28;97371;-65
2023/07/21 03:35:25;;;;;;;3.55;2.38;;;;;;;16.81;61.74;99852.44;30599567;28;97264;-66
2023/07/21 03:50:27;;;;;;;3.72;2.83;;;;;;;16.82;61.41;99848.72;30615480;28;97081;-65
2023/07/21 04:05:28;;;;;;;4.70;2.70;;;;;;;16.85;61.86;99842.91;30614086;28;97538;-65
2023/07/21 04:20:34;;;;;;;4.68;2.97;;;;;;;17.24;61.51;99849.81;30609334;28;100144;-63
2023/07/21 04:35:35;;;;;;;5.27;3.00;;;;;;;17.57;61.19;99850.50;30608149;28;97191;-66
2023/07/21 04:50:36;;;;;;;6.63;2.63;;;;;;;17.99;60.54;99852.50;30607550;28;97404;-64
2023/07/21 05:05:38;;;;;;;8.73;2.40;;;;;;;18.59;59.47;99852.47;30608643;28;97115;-64
2023/07/21 05:20:40;;;;;;;2.70;1.90;;;;;;;19.35;57.79;99843.72;30605943;28;97160;-65
2023/07/21 05:35:41;;;;;;;3.47;1.97;;;;;;;19.98;55.54;99840.44;30605969;28;96724;-65
2023/07/21 05:50:41;;;;;;;3.87;1.87;;;;;;;20.67;54.00;99848.44;30602495;28;115795;-66
2023/07/21 06:05:41;;;;;;;7.57;1.50;;;;;;;21.05;51.74;99860.44;30613351;28;107837;-64
2023/07/21 06:20:42;;;;;;;2.30;1.47;;;;;;;21.47;50.26;99861.81;30628290;28;97961;-64
2023/07/21 06:35:42;;;;;;;5.67;1.47;;;;;;;21.86;48.35;99852.88;30596472;28;111443;-64
2023/07/21 06:50:42;;;;;;;3.93;1.80;;;;;;;22.21;46.81;99841.59;30594904;28;97403;-64
2023/07/21 07:05:46;;;;;;;3.88;1.42;;;;;;;22.71;45.89;99842.31;30595349;28;97476;-65
2023/07/21 07:20:53;;;;;;;3.30;1.00;;;;;;;23.66;42.82;99836.13;30671844;28;96807;-64
2023/07/21 07:35:53;;;;;;;2.87;1.13;;;;;;;24.71;40.86;99827.91;30598797;28;97614;-64
2023/07/21 07:50:54;;;;;;;2.53;0.73;;;;;;;25.32;37.50;99824.25;30592819;28;100038;-64
2023/07/21 08:05:55;;;;;;;2.87;0.90;;;;;;;25.98;36.05;99816.88;30650047;28;97161;-67
2023/07/21 08:20:55;;;;;;;2.35;0.68;;;;;;;26.67;33.85;99797.84;30611083;28;97662;-66
2023/07/21 08:35:56;;;;;;;0.88;0.57;;;;;;;27.68;31.77;99800.88;30644738;28;96900;-66
2023/07/21 08:50:57;;;;;;;1.58;0.60;;;;;;;27.43;31.71;99783.69;30625378;28;97215;-67
2023/07/21 09:05:59;;;;;;;1.70;0.90;;;;;;;28.95;29.83;99790.97;30608071;28;97118;-64
2023/07/21 09:21:00;;;;;;;1.17;0.60;;;;;;;29.16;28.45;99774.91;30606603;28;97215;-69
2023/07/21 09:36:07;;;;;;;1.80;0.50;;;;;;;29.94;27.24;99756.84;30614442;28;97305;-65
2023/07/21 09:51:08;;;;;;;1.20;0.50;;;;;;;30.20;26.48;99743.31;30602793;28;97390;-64
2023/07/21 10:06:09;;;;;;;1.23;0.43;;;;;;;31.35;24.96;99738.00;30601109;28;97456;-65
2023/07/21 10:21:09;;;;;;;1.57;0.60;;;;;;;31.73;24.35;99718.16;30599742;28;98648;-65
2023/07/21 10:36:14;;;;;;;0.50;0.50;;;;;;;29.43;25.80;99731.31;30640405;28;97201;-65
2023/07/21 10:51:14;;;;;;;2.67;0.80;;;;;;;30.74;24.85;99715.00;30595205;28;97364;-65
2023/07/21 11:06:16;;;;;;;0.95;0.60;;;;;;;32.30;23.80;99690.72;30594605;28;116726;-65
2023/07/21 11:21:16;;;;;;;3.33;0.80;;;;;;;31.46;23.66;99677.97;30595881;28;97294;-66
2023/07/21 11:36:21;;;;;;;0.73;0.60;;;;;;;30.21;24.24;99665.28;30593703;28;97204;-67
2023/07/21 11:51:22;;;;;;;2.90;1.00;;;;;;;31.38;23.80;99635.56;30592134;28;98612;-65
2023/07/21 12:06:23;;;;;;;2.05;0.60;;;;;;;32.65;23.14;99614.19;30609082;28;97280;-66
2023/07/21 12:21:26;;;;;;;1.17;0.70;;;;;;;32.72;22.76;99597.16;30611130;28;97562;-65
2023/07/21 12:36:28;;;;;;;1.07;0.90;;;;;;;32.11;22.72;99583.63;30609398;28;96688;-65
2023/07/21 12:51:29;;;;;;;3.93;0.83;;;;;;;31.41;24.34;99570.81;30573903;28;97956;-66
2023/07/21 13:06:29;;;;;;;2.88;1.13;;;;;;;32.01;23.92;99566.34;30584724;28;114255;-66
2023/07/21 13:21:29;;;;;;;5.68;0.90;;;;;;;31.28;24.80;99558.06;30596887;28;104796;-66
2023/07/21 13:36:31;;;;;;;2.30;1.10;;;;;;;32.13;24.61;99549.09;30602625;28;110070;-65
2023/07/21 13:51:32;;;;;;;1.87;1.13;;;;;;;31.02;25.39;99543.16;30595030;28;97192;-65
2023/07/21 14:06:32;;;;;;;3.65;1.13;;;;;;;30.25;25.92;99536.34;30619255;28;97475;-65
2023/07/21 14:21:33;;;;;;;2.03;1.27;;;;;;;28.25;27.25;99510.63;30636239;28;98305;-64
2023/07/21 14:36:35;;;;;;;1.80;0.93;;;;;;;27.54;29.09;99494.41;30623206;28;97977;-65
2023/07/21 14:51:37;;;;;;;2.87;1.07;;;;;;;26.81;31.18;99481.06;30559366;28;97661;-67
2023/07/21 15:06:37;;;;;;;4.50;1.20;;;;;;;26.27;32.78;99468.66;30561539;28;97186;-67
2023/07/21 15:21:38;;;;;;;2.63;1.13;;;;;;;26.01;33.42;99450.66;30582837;28;97478;-66
2023/07/21 15:36:38;;;;;;;3.08;1.85;;;;;;;25.97;33.79;99430.53;30593679;28;97248;-65
2023/07/21 15:51:38;;;;;;;2.20;1.20;;;;;;;26.24;34.33;99414.66;30593476;28;97227;-66
2023/07/21 16:06:39;;;;;;;2.72;1.20;;;;;;;26.18;34.52;99422.09;30676830;28;110470;-69
2023/07/21 16:21:39;;;;;;;5.15;1.70;;;;;;;25.59;35.43;99433.13;30538539;28;98423;-72
2023/07/21 16:36:41;;;;;;;3.22;1.75;;;;;;;24.40;38.42;99481.34;30521730;28;98978;-67
2023/07/21 16:51:41;;;;;;;8.13;3.57;;;;;;;23.21;44.43;99454.44;30594602;28;97302;-68
2023/07/21 17:06:41;;;;;;;10.13;3.13;;;;;;;22.64;48.74;99439.97;30596721;28;114173;-69
2023/07/21 17:21:41;;;;;;;;;;;;;;;22.87;51.28;99426.94;30598182;28;97021;-67
2023/07/21 17:36:42;;;;;;;5.37;3.00;;;;;;;22.75;52.67;99414.47;30598705;28;96713;-67
2023/07/21 17:51:42;;;;;;;;;;;;;;;22.39;54.13;99435.28;30596171;28;107142;-66
2023/07/21 18:06:42;;;;;;;2.93;1.80;;;;;;;21.79;54.98;99479.75;30594967;28;97279;-71
2023/07/21 18:21:44;;;;;;;3.40;2.23;;;;;;;20.37;57.03;99461.94;30590145;28;110590;-67
2023/07/21 18:36:45;;;;;;;4.57;2.47;;;;;;;19.58;59.18;99445.72;30582477;28;97251;-74
2023/07/21 18:51:45;;;;;;;4.75;2.58;;;;;;;19.26;61.06;99454.44;30603857;28;97492;-73
2023/07/21 19:06:45;;;;;;;3.15;2.17;;;;;;;19.01;62.78;99467.50;30588975;28;97505;-72
2023/07/21 19:21:46;;;;;;;2.88;2.10;;;;;;;18.85;63.52;99487.97;30588753;28;110067;-67
2023/07/21 19:36:46;;;;;;;3.97;2.78;;;;;;;18.72;64.11;99498.00;30588745;28;97459;-70
2023/07/21 19:51:51;;;;;;;6.82;2.95;;;;;;;18.68;65.49;99510.34;30542388;28;98318;-67
2023/07/21 20:06:51;;;;;;;4.20;3.40;;;;;;;18.35;66.60;99524.50;30463769;28;97034;-67
2023/07/21 20:21:51;;;;;;;7.38;3.60;;;;;;;18.56;67.74;99526.56;30473723;28;108923;-71
2023/07/21 20:36:53;;;;;;;6.95;3.90;;;;;;;18.38;68.98;99559.09;30544021;28;97131;-67
2023/07/21 20:51:53;;;;;;;6.07;4.17;;;;;;;18.25;68.84;99579.84;30603598;28;97371;-71
2023/07/21 21:06:53;;;;;;;6.18;3.10;;;;;;;18.08;70.73;99581.63;30602296;28;97518;-68
2023/07/21 21:21:54;;;;;;;5.38;2.75;;;;;;;18.23;70.24;99603.53;30600039;28;97080;-70
2023/07/21 21:36:54;;;;;;;10.18;4.47;;;;;;;18.55;69.68;99603.16;30599028;28;107868;-68
2023/07/21 21:51:54;;;;;;;4.22;2.50;;;;;;;18.96;68.57;99618.56;30598839;28;108614;-68
2023/07/21 22:06:55;;;;;;;5.18;2.67;;;;;;;18.78;67.22;99623.03;30596681;28;104218;-67
2023/07/21 22:21:55;;;;;;;4.53;2.83;;;;;;;18.12;67.71;99668.22;30593754;28;107163;-67
2023/07/21 22:36:55;;;;;;;4.93;3.35;;;;;;;17.54;69.76;99655.19;30595412;28;101640;-67
2023/07/21 22:51:56;;;;;;;7.05;3.97;;;;;;;18.14;70.85;99653.47;30592456;28;96878;-67
2023/07/21 23:06:56;;;;;;;7.30;3.55;;;;;;;18.76;70.96;99644.03;30590497;28;114754;-67
2023/07/21 23:21:56;;;;;;;5.97;4.00;;;;;;;19.03;70.47;99641.66;30590005;28;110179;-68
2023/07/21 23:36:57;;;;;;;4.68;3.25;;;;;;;18.77;68.95;99643.00;30589355;28;97592;-69
2023/07/21 23:51:58;;;;;;;;;;;;;;;18.60;68.71;99648.28;30590181;28;96761;-68
